createdAt,value
2023-03-10T00:01:59.922Z,20.56
2023-03-10T00:05:03.848Z,20.56
2023-03-10T00:08:08.540Z,20.56
2023-03-10T00:11:11.992Z,20.56
2023-03-10T00:14:15.548Z,20.57
2023-03-10T00:17:18.505Z,20.56
2023-03-10T00:20:21.695Z,20.55
2023-03-10T00:23:26.505Z,20.55
2023-03-10T00:26:30.095Z,20.54
2023-03-10T00:29:33.052Z,20.53
2023-03-10T00:32:37.771Z,20.51
2023-03-10T00:35:40.756Z,20.51
2023-03-10T00:38:46.402Z,20.50
2023-03-10T00:41:49.930Z,20.49
2023-03-10T00:44:53.254Z,20.49
2023-03-10T00:47:59.259Z,20.49
2023-03-10T00:51:02.496Z,20.50
2023-03-10T00:54:06.978Z,20.49
2023-03-10T00:57:10.045Z,20.50
2023-03-10T01:00:15.941Z,20.50
2023-03-10T01:03:18.902Z,20.49
2023-03-10T01:06:22.946Z,20.49
2023-03-10T01:09:27.456Z,20.48
2023-03-10T01:12:30.349Z,20.48
2023-03-10T01:15:33.259Z,20.47
2023-03-10T01:18:36.262Z,20.46
2023-03-10T01:21:40.603Z,20.47
2023-03-10T01:24:45.779Z,20.46
2023-03-10T01:27:48.735Z,20.46
2023-03-10T01:30:51.778Z,20.46
2023-03-10T01:33:54.998Z,20.46
2023-03-10T01:36:58.064Z,20.47
2023-03-10T01:40:05.172Z,20.48
2023-03-10T01:43:33.640Z,20.49
2023-03-10T01:46:51.767Z,20.47
2023-03-10T01:50:00.889Z,20.46
2023-03-10T01:53:04.301Z,20.46
2023-03-10T01:56:08.939Z,20.47
2023-03-10T01:59:12.464Z,20.46
2023-03-10T02:02:15.537Z,20.46
2023-03-10T02:05:18.780Z,20.46
2023-03-10T02:08:24.100Z,20.46
2023-03-10T02:11:29.056Z,20.45
2023-03-10T02:14:33.165Z,20.45
2023-03-10T02:17:36.612Z,20.45
2023-03-10T02:20:45.344Z,20.46
2023-03-10T02:24:01.436Z,20.47
2023-03-10T02:27:12.833Z,20.47
2023-03-10T02:30:19.997Z,20.47
2023-03-10T02:33:27.688Z,20.47
2023-03-10T02:36:33.129Z,20.46
2023-03-10T02:39:36.109Z,20.46
2023-03-10T02:42:40.640Z,20.46
2023-03-10T02:45:46.029Z,20.45
2023-03-10T02:48:49.492Z,20.45
2023-03-10T02:52:11.199Z,20.45
2023-03-10T02:55:16.756Z,20.44
2023-03-10T02:58:25.193Z,20.44
2023-03-10T03:01:30.311Z,20.44
2023-03-10T03:04:33.896Z,20.45
2023-03-10T03:07:37.091Z,20.45
2023-03-10T03:10:40.785Z,20.45
2023-03-10T03:13:46.489Z,20.45
2023-03-10T03:16:49.679Z,20.45
2023-03-10T03:19:52.776Z,20.43
2023-03-10T03:22:58.360Z,20.42
2023-03-10T03:26:01.592Z,20.44
2023-03-10T03:29:06.665Z,20.43
2023-03-10T03:32:12.076Z,20.43
2023-03-10T03:35:18.576Z,20.43
2023-03-10T03:38:21.590Z,20.43
2023-03-10T03:41:25.001Z,20.43
2023-03-10T03:44:29.420Z,20.43
2023-03-10T03:47:33.087Z,20.44
2023-03-10T03:50:36.354Z,20.44
2023-03-10T03:53:46.479Z,20.45
2023-03-10T03:56:49.461Z,20.44
2023-03-10T03:59:54.397Z,20.44
2023-03-10T04:02:57.407Z,20.45
2023-03-10T04:06:00.849Z,20.44
2023-03-10T04:09:04.229Z,20.45
2023-03-10T04:12:10.847Z,20.44
2023-03-10T04:15:17.998Z,20.44
2023-03-10T04:18:20.901Z,20.45
2023-03-10T04:21:23.904Z,20.44
2023-03-10T04:24:29.675Z,20.44
2023-03-10T04:27:33.702Z,20.43
2023-03-10T04:30:38.341Z,20.45
2023-03-10T04:33:41.377Z,20.45
2023-03-10T04:36:44.554Z,20.45
2023-03-10T04:39:47.832Z,20.45
2023-03-10T04:42:50.856Z,20.45
2023-03-10T04:45:55.396Z,20.44
2023-03-10T04:48:59.104Z,20.43
2023-03-10T04:52:02.818Z,20.43
2023-03-10T04:55:07.437Z,20.42
2023-03-10T04:58:10.399Z,20.42
2023-03-10T05:01:16.523Z,20.42
2023-03-10T05:04:24.678Z,20.41
2023-03-10T05:07:29.954Z,20.42
2023-03-10T05:10:34.128Z,20.42
2023-03-10T05:13:37.467Z,20.42
2023-03-10T05:16:43.741Z,20.43
2023-03-10T05:19:47.086Z,20.43
2023-03-10T05:22:50.237Z,20.43
2023-03-10T05:25:54.527Z,20.42
2023-03-10T05:28:59.669Z,20.43
2023-03-10T05:32:13.523Z,20.44
2023-03-10T05:35:17.787Z,20.44
2023-03-10T05:38:22.023Z,20.42
2023-03-10T05:41:25.156Z,20.42
2023-03-10T05:44:32.820Z,20.42
2023-03-10T05:47:39.258Z,20.42
2023-03-10T05:50:43.116Z,20.42
2023-03-10T05:53:46.652Z,20.43
2023-03-10T05:56:54.720Z,20.43
2023-03-10T06:00:00.948Z,20.44
2023-03-10T06:03:07.146Z,20.44
2023-03-10T06:06:10.068Z,20.44
2023-03-10T06:09:13.087Z,20.44
2023-03-10T06:12:15.992Z,20.43
2023-03-10T06:15:18.941Z,20.43
2023-03-10T06:18:23.454Z,20.43
2023-03-10T06:21:28.294Z,20.42
2023-03-10T06:24:31.448Z,20.43
2023-03-10T06:27:34.468Z,20.42
2023-03-10T06:30:37.561Z,20.43
2023-03-10T06:33:41.813Z,20.43
2023-03-10T06:36:44.825Z,20.42
2023-03-10T06:39:48.156Z,20.43
2023-03-10T06:42:51.091Z,20.45
2023-03-10T06:45:54.063Z,20.45
2023-03-10T06:48:58.471Z,20.44
2023-03-10T06:52:02.017Z,20.45
2023-03-10T06:55:05.697Z,20.44
2023-03-10T06:58:08.711Z,20.44
2023-03-10T07:01:23.255Z,20.44
2023-03-10T07:04:27.674Z,20.44
2023-03-10T07:07:30.705Z,20.40
2023-03-10T07:10:33.728Z,20.32
2023-03-10T07:13:37.040Z,20.23
2023-03-10T07:16:40.300Z,20.14
2023-03-10T07:19:44.672Z,20.07
2023-03-10T07:22:47.688Z,20.07
2023-03-10T07:25:53.333Z,20.16
2023-03-10T07:28:56.409Z,20.29
2023-03-10T07:31:59.351Z,20.44
2023-03-10T07:35:03.783Z,20.60
2023-03-10T07:38:06.700Z,20.73
2023-03-10T07:41:10.326Z,20.86
2023-03-10T07:44:13.305Z,20.97
2023-03-10T07:47:16.788Z,21.07
2023-03-10T07:50:21.920Z,21.14
2023-03-10T07:53:25.341Z,21.20
2023-03-10T07:56:28.366Z,21.23
2023-03-10T07:59:31.368Z,21.25
2023-03-10T08:02:34.389Z,21.25
2023-03-10T08:05:42.361Z,21.25
2023-03-10T08:08:45.248Z,21.22
2023-03-10T08:11:48.272Z,21.19
2023-03-10T08:14:51.949Z,21.16
2023-03-10T08:17:54.959Z,21.13
2023-03-10T08:21:00.273Z,21.11
2023-03-10T08:24:03.212Z,21.10
2023-03-10T08:27:06.652Z,21.08
2023-03-10T08:30:10.911Z,21.07
2023-03-10T08:33:13.853Z,21.07
2023-03-10T08:36:20.742Z,21.05
2023-03-10T08:39:25.108Z,21.03
2023-03-10T08:42:29.679Z,20.99
2023-03-10T08:45:32.772Z,20.98
2023-03-10T08:48:35.787Z,20.96
2023-03-10T08:51:40.650Z,20.95
2023-03-10T08:54:43.824Z,20.95
2023-03-10T08:57:46.711Z,20.93
2023-03-10T09:00:49.897Z,20.91
2023-03-10T09:03:52.872Z,20.90
2023-03-10T09:06:57.272Z,20.88
2023-03-10T09:10:00.231Z,20.87
2023-03-10T09:13:13.327Z,20.85
2023-03-10T09:16:17.960Z,20.86
2023-03-10T09:19:21.003Z,20.84
2023-03-10T09:22:25.300Z,20.83
2023-03-10T09:25:28.333Z,20.82
2023-03-10T09:28:31.898Z,20.83
2023-03-10T09:31:38.194Z,20.82
2023-03-10T09:34:41.595Z,20.82
2023-03-10T09:37:45.911Z,20.83
2023-03-10T09:40:55.192Z,20.83
2023-03-10T09:44:04.505Z,20.82
2023-03-10T09:47:23.812Z,20.80
2023-03-10T09:50:33.830Z,20.80
2023-03-10T09:53:59.471Z,20.81
2023-03-10T09:57:04.352Z,20.79
2023-03-10T10:00:12.980Z,20.79
2023-03-10T10:03:20.516Z,20.79
2023-03-10T10:06:28.649Z,20.78
2023-03-10T10:09:42.333Z,20.79
2023-03-10T10:12:45.667Z,20.79
2023-03-10T10:16:07.364Z,20.80
2023-03-10T10:19:21.641Z,20.80
2023-03-10T10:22:28.797Z,20.83
2023-03-10T10:25:34.113Z,20.82
2023-03-10T10:28:42.824Z,20.84
2023-03-10T10:32:04.636Z,20.84
2023-03-10T10:35:16.345Z,20.84
2023-03-10T10:38:26.902Z,20.85
2023-03-10T10:41:33.814Z,20.85
2023-03-10T10:44:42.264Z,20.85
2023-03-10T10:47:50.297Z,20.86
2023-03-10T10:50:54.868Z,20.85
2023-03-10T10:53:58.584Z,20.84
2023-03-10T10:57:03.278Z,20.84
2023-03-10T11:00:25.208Z,20.83
2023-03-10T11:03:33.058Z,20.83
2023-03-10T11:06:38.132Z,20.84
2023-03-10T11:09:41.160Z,20.82
2023-03-10T11:12:56.071Z,20.82
2023-03-10T11:16:06.167Z,20.81
2023-03-10T11:19:19.284Z,20.79
2023-03-10T11:22:32.198Z,20.78
2023-03-10T11:25:41.898Z,20.77
2023-03-10T11:28:54.093Z,20.77
2023-03-10T11:32:05.757Z,20.77
2023-03-10T11:35:22.560Z,20.76
2023-03-10T11:38:35.747Z,20.74
2023-03-10T11:41:45.073Z,20.75
2023-03-10T11:45:02.560Z,20.75
2023-03-10T11:48:18.994Z,20.75
2023-03-10T11:51:30.961Z,20.75
2023-03-10T11:54:37.424Z,20.75
2023-03-10T11:57:46.483Z,20.74
2023-03-10T12:00:53.957Z,20.74
2023-03-10T12:04:02.031Z,20.73
2023-03-10T12:07:09.864Z,20.72
2023-03-10T12:10:17.518Z,20.72
2023-03-10T12:13:24.724Z,20.71
2023-03-10T12:16:32.229Z,20.71
2023-03-10T12:20:22.721Z,20.71
2023-03-10T12:23:39.937Z,20.71
2023-03-10T12:27:05.221Z,20.71
2023-03-10T12:30:41.351Z,20.71
2023-03-10T12:33:52.698Z,20.72
2023-03-10T12:37:03.929Z,20.72
2023-03-10T12:40:47.738Z,20.72
2023-03-10T12:44:00.118Z,20.71
2023-03-10T12:47:16.869Z,20.71
2023-03-10T12:50:31.757Z,20.71
2023-03-10T12:53:38.880Z,20.71
2023-03-10T12:56:44.672Z,20.71
2023-03-10T12:59:58.180Z,20.70
2023-03-10T13:03:05.535Z,20.71
2023-03-10T13:06:22.419Z,20.70
2023-03-10T13:09:28.285Z,20.71
2023-03-10T13:12:34.473Z,20.71
2023-03-10T13:15:37.613Z,20.73
2023-03-10T13:18:47.921Z,20.74
2023-03-10T13:21:53.994Z,20.75
2023-03-10T13:25:02.660Z,20.75
2023-03-10T13:28:12.421Z,20.75
2023-03-10T13:31:21.439Z,20.75
2023-03-10T13:34:29.168Z,20.73
2023-03-10T13:37:33.657Z,20.72
2023-03-10T13:40:38.884Z,20.71
2023-03-10T13:43:43.716Z,20.72
2023-03-10T13:46:51.829Z,20.71
2023-03-10T13:49:57.316Z,20.72
2023-03-10T13:53:02.065Z,20.73
2023-03-10T13:56:18.363Z,20.72
2023-03-10T13:59:24.593Z,20.72
2023-03-10T14:02:31.331Z,20.74
2023-03-10T14:05:45.600Z,20.74
2023-03-10T14:08:50.638Z,20.74
2023-03-10T14:11:53.548Z,20.75
2023-03-10T14:15:09.512Z,20.75
2023-03-10T14:18:20.847Z,20.74
2023-03-10T14:21:25.846Z,20.74
2023-03-10T14:24:30.135Z,20.74
2023-03-10T14:27:35.192Z,20.73
2023-03-10T14:30:38.868Z,20.75
2023-03-10T14:33:42.348Z,20.68
2023-03-10T14:36:45.301Z,20.64
2023-03-10T14:39:49.713Z,20.63
2023-03-10T14:42:54.435Z,20.65
2023-03-10T14:46:00.269Z,20.67
2023-03-10T14:49:05.491Z,20.73
2023-03-10T14:52:15.206Z,20.81
2023-03-10T14:55:19.894Z,20.88
2023-03-10T14:58:25.767Z,20.91
2023-03-10T15:01:29.431Z,20.95
2023-03-10T15:04:32.572Z,20.99
2023-03-10T15:07:35.642Z,21.03
2023-03-10T15:10:43.070Z,21.05
2023-03-10T15:13:45.982Z,21.06
2023-03-10T15:16:48.944Z,21.06
2023-03-10T15:19:51.892Z,21.06
2023-03-10T15:22:54.921Z,21.05
2023-03-10T15:26:02.893Z,21.04
2023-03-10T15:29:06.537Z,21.02
2023-03-10T15:32:09.625Z,20.99
2023-03-10T15:35:13.077Z,20.98
2023-03-10T15:38:16.267Z,20.97
2023-03-10T15:41:20.629Z,20.95
2023-03-10T15:44:23.604Z,20.94
2023-03-10T15:47:26.725Z,20.93
2023-03-10T15:50:29.736Z,20.91
2023-03-10T15:53:32.662Z,20.89
2023-03-10T15:56:36.930Z,20.89
2023-03-10T15:59:40.036Z,20.87
2023-03-10T16:02:43.704Z,20.86
2023-03-10T16:05:48.974Z,20.85
2023-03-10T16:08:51.901Z,20.85
2023-03-10T16:11:56.454Z,20.83
2023-03-10T16:14:59.481Z,20.83
2023-03-10T16:18:02.428Z,20.83
2023-03-10T16:21:06.471Z,20.80
2023-03-10T16:24:10.055Z,20.80
2023-03-10T16:27:14.784Z,20.78
2023-03-10T16:30:19.144Z,20.76
2023-03-10T16:33:22.106Z,20.75
2023-03-10T16:36:26.761Z,20.75
2023-03-10T16:39:31.071Z,20.73
2023-03-10T16:42:36.357Z,20.73
2023-03-10T16:45:39.281Z,20.73
2023-03-10T16:48:43.912Z,20.73
2023-03-10T16:51:48.463Z,20.72
2023-03-10T16:54:51.369Z,20.72
2023-03-10T16:57:55.657Z,20.73
2023-03-10T17:00:58.644Z,20.72
2023-03-10T17:04:01.736Z,20.72
2023-03-10T17:07:04.905Z,20.72
2023-03-10T17:10:08.413Z,20.71
2023-03-10T17:13:12.844Z,20.72
2023-03-10T17:16:16.958Z,20.71
2023-03-10T17:19:22.548Z,20.71
2023-03-10T17:22:25.658Z,20.71
2023-03-10T17:25:28.856Z,20.70
2023-03-10T17:28:33.171Z,20.71
2023-03-10T17:31:36.556Z,20.71
2023-03-10T17:34:40.576Z,20.71
2023-03-10T17:37:44.752Z,20.71
2023-03-10T17:40:47.799Z,20.72
2023-03-10T17:43:52.355Z,20.71
2023-03-10T17:46:56.172Z,20.70
2023-03-10T17:50:01.555Z,20.70
2023-03-10T17:53:04.466Z,20.70
2023-03-10T17:56:08.755Z,20.70
2023-03-10T17:59:14.366Z,20.70
2023-03-10T18:02:17.490Z,20.70
2023-03-10T18:05:20.413Z,20.70
2023-03-10T18:08:23.270Z,20.70
2023-03-10T18:11:27.582Z,20.70
2023-03-10T18:14:31.971Z,20.70
2023-03-10T18:17:34.855Z,20.70
2023-03-10T18:20:37.819Z,20.72
2023-03-10T18:23:40.873Z,20.71
2023-03-10T18:26:45.695Z,20.72
2023-03-10T18:29:51.317Z,20.71
2023-03-10T18:32:54.269Z,20.70
2023-03-10T18:35:57.388Z,20.71
2023-03-10T18:39:02.324Z,20.70
2023-03-10T18:42:05.672Z,20.70
2023-03-10T18:45:11.812Z,20.70
2023-03-10T18:48:14.752Z,20.70
2023-03-10T18:51:17.663Z,20.70
2023-03-10T18:54:20.800Z,20.69
2023-03-10T18:57:23.710Z,20.69
2023-03-10T19:00:28.564Z,20.70
2023-03-10T19:03:32.390Z,20.70
2023-03-10T19:06:35.890Z,20.70
2023-03-10T19:09:38.848Z,20.71
2023-03-10T19:12:43.165Z,20.70
2023-03-10T19:15:47.762Z,20.70
2023-03-10T19:18:50.806Z,20.69
2023-03-10T19:21:53.772Z,20.69
2023-03-10T19:24:56.886Z,20.68
2023-03-10T19:27:59.862Z,20.68
2023-03-10T19:31:09.503Z,20.69
2023-03-10T19:34:12.508Z,20.68
2023-03-10T19:37:15.456Z,20.68
2023-03-10T19:40:20.431Z,20.69
2023-03-10T19:43:23.388Z,20.69
2023-03-10T19:46:27.855Z,20.70
2023-03-10T19:49:34.083Z,20.70
2023-03-10T19:52:38.928Z,20.70
2023-03-10T19:55:43.440Z,20.71
2023-03-10T19:58:48.117Z,20.70
2023-03-10T20:01:52.640Z,20.72
2023-03-10T20:04:55.651Z,20.71
2023-03-10T20:07:58.556Z,20.70
2023-03-10T20:11:03.371Z,20.69
2023-03-10T20:14:06.539Z,20.69
2023-03-10T20:17:10.901Z,20.69
2023-03-10T20:20:15.290Z,20.69
2023-03-10T20:23:18.639Z,20.69
2023-03-10T20:26:21.658Z,20.69
2023-03-10T20:29:24.683Z,20.70
2023-03-10T20:32:29.270Z,20.72
2023-03-10T20:35:34.018Z,20.71
2023-03-10T20:38:37.117Z,20.72
2023-03-10T20:41:40.303Z,20.72
2023-03-10T20:44:43.384Z,20.71
2023-03-10T20:47:48.089Z,20.71
2023-03-10T20:50:55.385Z,20.71
2023-03-10T20:53:58.389Z,20.71
2023-03-10T20:57:01.570Z,20.71
2023-03-10T21:00:06.711Z,20.70
2023-03-10T21:03:11.177Z,20.70
2023-03-10T21:06:14.139Z,20.71
2023-03-10T21:09:17.116Z,20.71
2023-03-10T21:12:21.233Z,20.72
2023-03-10T21:15:25.477Z,20.73
2023-03-10T21:18:29.792Z,20.73
2023-03-10T21:21:34.547Z,20.73
2023-03-10T21:24:37.961Z,20.72
2023-03-10T21:27:41.007Z,20.73
2023-03-10T21:30:44.234Z,20.73
2023-03-10T21:33:50.180Z,20.73
2023-03-10T21:36:53.171Z,20.73
2023-03-10T21:39:56.078Z,20.72
2023-03-10T21:43:01.431Z,20.70
2023-03-10T21:46:06.502Z,20.71
2023-03-10T21:49:10.994Z,20.72
2023-03-10T21:52:14.069Z,20.71
2023-03-10T21:55:20.573Z,20.72
2023-03-10T21:58:27.061Z,20.72
2023-03-10T22:01:30.058Z,20.72
2023-03-10T22:04:34.800Z,20.73
2023-03-10T22:07:38.637Z,20.74
2023-03-10T22:10:41.565Z,20.72
2023-03-10T22:13:45.785Z,20.72
2023-03-10T22:16:48.765Z,20.72
2023-03-10T22:19:54.869Z,20.73
2023-03-10T22:22:57.891Z,20.72
2023-03-10T22:26:00.972Z,20.72
2023-03-10T22:29:03.908Z,20.71
2023-03-10T22:32:07.629Z,20.70
2023-03-10T22:35:12.615Z,20.71
2023-03-10T22:38:15.599Z,20.70
2023-03-10T22:41:18.544Z,20.71
2023-03-10T22:44:21.474Z,20.71
2023-03-10T22:47:24.597Z,20.71
2023-03-10T22:50:32.528Z,20.71
2023-03-10T22:53:37.854Z,20.70
2023-03-10T22:56:41.084Z,20.70
2023-03-10T22:59:44.124Z,20.69
2023-03-10T23:02:47.958Z,20.69
2023-03-10T23:05:52.347Z,20.69
2023-03-10T23:08:55.318Z,20.68
2023-03-10T23:11:58.260Z,20.68
2023-03-10T23:15:03.669Z,20.68
2023-03-10T23:18:10.460Z,20.68
2023-03-10T23:21:15.094Z,20.68
2023-03-10T23:24:18.035Z,20.68
2023-03-10T23:27:20.906Z,20.69
2023-03-10T23:30:24.137Z,20.69
2023-03-10T23:33:27.531Z,20.69
2023-03-10T23:36:32.366Z,20.70
2023-03-10T23:39:35.352Z,20.69
2023-03-10T23:42:38.407Z,20.69
2023-03-10T23:45:41.898Z,20.67
2023-03-10T23:48:45.264Z,20.67
2023-03-10T23:51:51.337Z,20.65
2023-03-10T23:54:54.501Z,20.65
2023-03-10T23:57:57.723Z,20.65
